Terminal Aerodrome Forecast
Issued by NWS

Home | Current Version | Previous Version | Text Only | Print | Product List | Glossary On
Versions: 1 2 3 4 5 6 7 8 9 10 11 12 13 14 15 16 17 18 19 20 21 22 23 24 25 26 27 28 29 30 31
000
FTUS43 KDVN 201700
TAFBRL
TAF
KBRL 201720Z 2018/2118 VRB04KT P6SM -RA FEW060 OVC110
     FM202000 21007KT P6SM FEW050 BKN120
     FM210100 18004KT P6SM SCT120 BKN150
     FM210700 18006KT 6SM BR VCTS SCT050CB OVC120
     FM211400 21008KT P6SM FEW050 BKN120=

USA.gov is the U.S. government's official web portal to all federal, state and local government web resources and services.